Terminal Aerodrome Forecast
Issued by NWS

Home | Current Version | Previous Version | Text Only | Print | Product List | Glossary On
Versions: 1 2 3 4 5 6 7 8 9 10 11 12 13
000
FTAK31 PANC 192330
TAFAGK
TAF
PAGK 192330Z 2000/2024 17008KT P6SM VCSH BKN035
      TEMPO 2002/2006 16010G18KT
     FM200600 16010G18KT P6SM BKN050 OVC090
     FM201000 16008KT P6SM BKN050=

USA.gov is the U.S. government's official web portal to all federal, state and local government web resources and services.